Time;durP1;ratioP1;P1;durP2;ratioP2;P2;SDS_P1;SDS_P2;PMS_P1;PMS_P2;Temp;Humidity;BMP_temperature;BMP_pressure;BME280_temperature;BME280_humidity;BME280_pressure;Samples;Min_cycle;Max_cycle;Signal;HPM_P1;HPM_P2
2022/06/09 00:00:31;;;;;;;6.10;2.00;;;16.50;86.70;;;;;;4989365;28;20560;-44
2022/06/09 00:03:04;;;;;;;1.83;1.53;;;16.50;86.80;;;;;;4970610;28;20469;-44
2022/06/09 00:05:33;;;;;;;2.53;1.60;;;16.60;86.40;;;;;;4987668;28;20540;-44
2022/06/09 00:08:04;;;;;;;2.03;1.53;;;16.60;86.30;;;;;;4987516;28;20536;-44
2022/06/09 00:10:36;;;;;;;1.87;1.60;;;16.60;86.10;;;;;;4987302;28;20813;-44
2022/06/09 00:13:03;;;;;;;1.77;1.20;;;16.60;86.20;;;;;;4972443;28;20824;-45
2022/06/09 00:15:30;;;;;;;5.53;2.10;;;16.60;86.40;;;;;;4972437;28;20496;-44
2022/06/09 00:17:57;;;;;;;2.00;1.70;;;16.60;86.20;;;;;;4987676;28;20452;-45
2022/06/09 00:20:24;;;;;;;4.50;1.70;;;16.60;86.40;;;;;;4988304;28;20859;-44
2022/06/09 00:22:51;;;;;;;1.67;1.33;;;16.60;86.20;;;;;;4987356;28;21100;-44
2022/06/09 00:25:18;;;;;;;2.10;1.77;;;16.60;85.80;;;;;;4988625;28;21009;-44
2022/06/09 00:27:45;;;;;;;2.20;1.80;;;16.60;86.00;;;;;;4989261;28;20457;-45
2022/06/09 00:30:14;;;;;;;2.50;1.60;;;16.60;85.90;;;;;;4990568;28;20528;-45
2022/06/09 00:32:41;;;;;;;2.57;2.00;;;16.60;85.90;;;;;;4990123;28;20492;-45
2022/06/09 00:35:09;;;;;;;2.50;1.77;;;16.60;85.50;;;;;;4989084;28;20465;-44
2022/06/09 00:37:36;;;;;;;2.23;2.03;;;16.60;85.70;;;;;;4989368;28;20900;-44
2022/06/09 00:40:05;;;;;;;1.60;1.50;;;16.60;85.90;;;;;;4991191;28;20459;-45
2022/06/09 00:42:34;;;;;;;2.10;1.70;;;16.60;85.90;;;;;;4988422;28;20547;-44
2022/06/09 00:45:24;;;;;;;2.13;1.80;;;16.50;86.20;;;;;;4990710;28;20449;-44
2022/06/09 00:47:53;;;;;;;1.60;1.50;;;16.50;86.30;;;;;;4969789;28;20574;-44
2022/06/09 00:50:24;;;;;;;4.47;1.50;;;16.50;86.40;;;;;;4968968;28;20492;-45
2022/06/09 00:52:58;;;;;;;5.03;1.67;;;16.50;86.20;;;;;;4971441;28;21021;-44
2022/06/09 00:55:28;;;;;;;1.80;1.70;;;16.50;85.70;;;;;;4987991;28;20460;-45
2022/06/09 00:58:06;;;;;;;3.03;1.60;;;16.50;85.30;;;;;;4954007;28;20461;-44
2022/06/09 01:01:00;;;;;;;4.10;2.00;;;16.40;85.40;;;;;;4988717;28;20523;-44
2022/06/09 01:03:31;;;;;;;2.10;2.00;;;16.40;85.20;;;;;;4987294;28;20483;-44
2022/06/09 01:06:06;;;;;;;2.27;1.43;;;16.40;84.80;;;;;;4990074;28;20465;-44
2022/06/09 01:08:38;;;;;;;2.60;1.77;;;16.40;84.60;;;;;;4986461;28;20477;-45
2022/06/09 01:11:05;;;;;;;2.83;1.77;;;16.40;84.90;;;;;;4971930;28;20453;-44
2022/06/09 01:13:32;;;;;;;4.23;1.60;;;16.30;85.10;;;;;;4971949;28;20835;-45
2022/06/09 01:16:21;;;;;;;2.00;1.67;;;16.30;85.20;;;;;;4981437;28;20577;-44
2022/06/09 01:19:10;;;;;;;4.00;1.57;;;16.30;85.00;;;;;;4969909;28;20499;-44
2022/06/09 01:22:03;;;;;;;3.50;1.80;;;16.30;84.40;;;;;;4988557;28;21008;-45
2022/06/09 01:24:43;;;;;;;4.27;1.87;;;16.20;84.60;;;;;;4988538;28;21063;-44
2022/06/09 01:27:17;;;;;;;2.30;1.80;;;16.20;84.80;;;;;;4986479;28;20460;-44
2022/06/09 01:30:39;;;;;;;1.83;1.73;;;16.10;84.40;;;;;;4989916;28;20512;-44
2022/06/09 01:33:14;;;;;;;3.63;2.50;;;16.10;84.70;;;;;;4965095;28;20853;-44
2022/06/09 01:36:00;;;;;;;3.10;2.30;;;16.10;84.60;;;;;;4986729;28;20564;-44
2022/06/09 01:38:27;;;;;;;3.60;2.03;;;16.10;84.60;;;;;;4987101;28;20548;-44
2022/06/09 01:40:53;;;;;;;3.90;2.00;;;16.00;84.80;;;;;;4972854;28;20470;-44
2022/06/09 01:43:20;;;;;;;3.30;2.30;;;16.00;84.60;;;;;;4988753;28;20460;-44
2022/06/09 01:46:00;;;;;;;2.17;1.80;;;16.00;84.40;;;;;;4988702;28;20461;-46
2022/06/09 01:48:30;;;;;;;3.17;1.93;;;16.00;84.50;;;;;;4972203;28;20556;-44
2022/06/09 01:51:12;;;;;;;2.80;1.90;;;16.00;84.10;;;;;;4968945;28;20545;-44
2022/06/09 01:53:47;;;;;;;3.20;2.70;;;16.00;84.40;;;;;;4969809;28;20959;-44
2022/06/09 01:56:30;;;;;;;3.83;1.80;;;16.00;84.10;;;;;;4985496;28;20486;-44
2022/06/09 01:59:03;;;;;;;2.37;2.17;;;15.90;84.20;;;;;;4983977;28;20477;-44
2022/06/09 02:01:41;;;;;;;3.67;2.10;;;15.90;84.30;;;;;;4966651;28;20603;-44
2022/06/09 02:04:16;;;;;;;2.30;2.10;;;15.80;84.60;;;;;;4981942;28;20832;-45
2022/06/09 02:06:45;;;;;;;2.70;1.60;;;15.80;84.70;;;;;;4980851;28;20617;-44
2022/06/09 02:09:12;;;;;;;3.90;2.00;;;15.70;84.90;;;;;;4968300;28;21081;-44
2022/06/09 02:12:06;;;;;;;3.73;2.70;;;15.70;84.80;;;;;;4972865;28;20453;-44
2022/06/09 02:14:45;;;;;;;2.63;2.30;;;15.70;84.70;;;;;;4984942;28;20500;-44
2022/06/09 02:17:12;;;;;;;3.73;2.03;;;15.70;84.80;;;;;;4960661;28;20469;-44
2022/06/09 02:19:40;;;;;;;3.53;1.60;;;15.70;84.80;;;;;;4967463;28;20453;-44
2022/06/09 02:22:10;;;;;;;3.33;1.97;;;15.70;84.90;;;;;;4987846;28;20978;-44
2022/06/09 02:24:37;;;;;;;2.00;1.90;;;15.60;84.60;;;;;;4985993;28;20467;-44
2022/06/09 02:27:05;;;;;;;9.13;2.33;;;15.60;84.20;;;;;;4986429;28;20985;-45
2022/06/09 02:29:33;;;;;;;5.27;2.40;;;15.60;84.10;;;;;;4987387;28;20495;-44
2022/06/09 02:32:00;;;;;;;3.70;2.83;;;15.50;84.00;;;;;;4986945;28;20468;-44
2022/06/09 02:34:27;;;;;;;3.23;2.00;;;15.50;84.20;;;;;;4969096;28;21020;-44
2022/06/09 02:36:53;;;;;;;4.30;2.40;;;15.40;84.50;;;;;;4985271;28;20471;-44
2022/06/09 02:39:20;;;;;;;8.30;2.40;;;15.40;84.60;;;;;;4981823;28;20467;-44
2022/06/09 02:41:47;;;;;;;2.40;1.97;;;15.40;84.70;;;;;;4985303;28;20465;-44
2022/06/09 02:44:14;;;;;;;4.97;2.03;;;15.30;84.60;;;;;;4969438;28;20472;-45
2022/06/09 02:46:40;;;;;;;4.10;2.90;;;15.30;84.80;;;;;;4983772;28;20457;-44
2022/06/09 02:49:07;;;;;;;2.47;1.80;;;15.30;84.90;;;;;;4967715;28;20493;-44
2022/06/09 02:51:39;;;;;;;5.23;2.60;;;15.30;85.20;;;;;;4984502;28;20472;-44
2022/06/09 02:54:10;;;;;;;3.53;2.43;;;15.30;84.90;;;;;;4954663;28;20850;-44
2022/06/09 02:56:37;;;;;;;3.63;1.90;;;15.30;84.90;;;;;;4966715;28;20540;-44
2022/06/09 02:59:04;;;;;;;4.13;2.43;;;15.30;85.10;;;;;;4985810;28;20556;-46
2022/06/09 03:01:31;;;;;;;3.80;1.90;;;15.20;85.10;;;;;;4986876;28;20515;-46
2022/06/09 03:03:58;;;;;;;3.30;2.27;;;15.20;85.20;;;;;;4983428;28;20464;-45
2022/06/09 03:06:25;;;;;;;5.37;1.93;;;15.20;85.20;;;;;;4968203;28;20494;-46
2022/06/09 03:08:52;;;;;;;6.10;2.70;;;15.20;85.30;;;;;;4967294;28;20453;-46
2022/06/09 03:11:18;;;;;;;2.70;1.87;;;15.20;85.40;;;;;;4985036;28;20465;-46
2022/06/09 03:13:46;;;;;;;4.90;2.10;;;15.20;85.40;;;;;;4968003;28;20469;-45
2022/06/09 03:16:15;;;;;;;3.20;2.17;;;15.20;85.50;;;;;;4984511;28;20512;-45
2022/06/09 03:18:43;;;;;;;2.37;1.90;;;15.10;85.50;;;;;;4964889;28;20461;-45
2022/06/09 03:21:11;;;;;;;5.83;1.90;;;15.20;85.70;;;;;;4985437;28;20495;-46
2022/06/09 03:23:38;;;;;;;5.30;2.00;;;15.20;85.20;;;;;;4966561;28;20474;-46
2022/06/09 03:26:06;;;;;;;3.33;2.00;;;15.20;85.40;;;;;;4981586;28;20464;-46
2022/06/09 03:28:35;;;;;;;2.30;1.70;;;15.10;85.60;;;;;;4972562;28;20472;-46
2022/06/09 03:31:02;;;;;;;2.73;1.87;;;15.20;85.20;;;;;;4971871;28;20876;-45
2022/06/09 03:33:29;;;;;;;5.47;2.77;;;15.20;84.90;;;;;;4970843;28;20506;-45
2022/06/09 03:35:56;;;;;;;4.20;1.80;;;15.20;84.40;;;;;;4989579;28;20461;-46
2022/06/09 03:38:23;;;;;;;4.60;1.80;;;15.20;84.30;;;;;;4968835;28;20551;-46
2022/06/09 03:40:49;;;;;;;3.90;2.50;;;15.10;84.60;;;;;;4989094;28;20465;-45
2022/06/09 03:43:16;;;;;;;2.80;1.77;;;15.10;84.60;;;;;;4974870;28;20837;-46
2022/06/09 03:45:43;;;;;;;5.10;2.07;;;15.10;84.80;;;;;;4991060;28;20528;-46
2022/06/09 03:48:10;;;;;;;5.23;2.13;;;15.00;85.10;;;;;;4990069;28;20472;-46
2022/06/09 03:50:37;;;;;;;4.83;2.30;;;15.00;85.30;;;;;;4988265;28;20950;-46
2022/06/09 03:53:04;;;;;;;3.47;2.70;;;15.00;85.30;;;;;;4986928;28;20799;-46
2022/06/09 03:55:31;;;;;;;2.80;1.90;;;15.00;85.40;;;;;;4987979;28;20488;-46
2022/06/09 03:57:58;;;;;;;5.33;1.90;;;15.10;85.50;;;;;;4970961;28;20485;-46
2022/06/09 04:00:28;;;;;;;3.87;1.80;;;15.00;85.30;;;;;;4988923;28;20493;-45
2022/06/09 04:02:55;;;;;;;5.50;2.20;;;15.00;85.40;;;;;;4983650;28;20468;-46
2022/06/09 04:05:22;;;;;;;4.97;2.90;;;15.00;85.30;;;;;;4989837;28;20516;-46
2022/06/09 04:07:49;;;;;;;2.80;2.30;;;15.00;85.40;;;;;;4990931;28;20472;-46
2022/06/09 04:10:21;;;;;;;4.57;2.80;;;15.10;85.90;;;;;;4972114;28;20515;-46
2022/06/09 04:12:48;;;;;;;3.47;2.60;;;15.10;85.90;;;;;;4986594;28;20535;-46
2022/06/09 04:15:16;;;;;;;3.43;2.63;;;15.10;85.90;;;;;;4970778;28;20959;-46
2022/06/09 04:17:44;;;;;;;6.30;2.67;;;15.10;85.90;;;;;;4988969;28;20453;-45
2022/06/09 04:20:13;;;;;;;4.03;3.07;;;15.00;85.90;;;;;;4989658;28;20829;-45
2022/06/09 04:22:39;;;;;;;4.47;2.50;;;15.00;85.90;;;;;;4991344;28;20477;-46
2022/06/09 04:25:13;;;;;;;5.80;2.90;;;15.00;86.00;;;;;;4973474;28;20497;-46
2022/06/09 04:27:40;;;;;;;5.50;2.33;;;15.00;86.10;;;;;;4975608;28;20993;-46
2022/06/09 04:30:08;;;;;;;4.13;2.40;;;15.10;86.10;;;;;;4989086;28;20994;-46
2022/06/09 04:32:35;;;;;;;4.50;2.50;;;15.10;85.90;;;;;;4987869;28;20868;-45
2022/06/09 04:35:03;;;;;;;4.37;2.27;;;15.10;85.80;;;;;;4989378;28;20468;-45
2022/06/09 04:40:16;;;;;;;3.57;2.60;;;15.20;85.40;;;;;;4988266;28;20469;-46
2022/06/09 04:42:42;;;;;;;2.20;2.00;;;15.20;85.20;;;;;;4987404;28;20471;-46
2022/06/09 04:45:09;;;;;;;4.10;2.00;;;15.20;85.30;;;;;;4984730;28;20479;-46
2022/06/09 04:47:36;;;;;;;3.13;2.33;;;15.30;85.10;;;;;;4969107;28;20468;-45
2022/06/09 04:50:04;;;;;;;4.20;2.10;;;15.30;85.40;;;;;;4984928;28;20993;-45
2022/06/09 04:52:31;;;;;;;6.87;2.40;;;15.30;85.30;;;;;;4986388;28;20469;-46
2022/06/09 04:54:58;;;;;;;4.63;2.77;;;15.30;85.50;;;;;;4985246;28;20475;-46
2022/06/09 04:57:25;;;;;;;4.87;2.73;;;15.30;84.90;;;;;;4984252;28;20467;-46
2022/06/09 04:59:52;;;;;;;3.37;2.40;;;15.40;85.40;;;;;;4988329;28;20487;-45
2022/06/09 05:02:19;;;;;;;10.90;2.20;;;15.40;85.50;;;;;;4985736;28;20479;-46
2022/06/09 05:04:46;;;;;;;4.07;2.30;;;15.40;84.80;;;;;;4984716;28;20475;-46
2022/06/09 05:07:13;;;;;;;4.50;2.27;;;15.40;84.70;;;;;;4985622;28;20623;-46
2022/06/09 05:09:40;;;;;;;4.70;2.40;;;15.50;84.80;;;;;;4986519;28;20469;-46
2022/06/09 05:12:06;;;;;;;3.43;1.90;;;15.50;83.80;;;;;;4969679;28;20815;-46
2022/06/09 05:14:33;;;;;;;4.63;2.80;;;15.50;84.20;;;;;;4983090;28;20536;-45
2022/06/09 05:17:00;;;;;;;3.30;2.00;;;15.50;83.90;;;;;;4987284;28;21037;-45
2022/06/09 05:19:27;;;;;;;4.60;2.10;;;15.60;84.00;;;;;;4989367;28;20457;-46
2022/06/09 05:21:54;;;;;;;3.60;2.23;;;15.60;83.80;;;;;;4985587;28;20488;-46
2022/06/09 05:24:21;;;;;;;3.90;2.17;;;15.60;83.50;;;;;;4984810;28;20846;-46
2022/06/09 05:26:47;;;;;;;6.73;2.30;;;15.70;84.00;;;;;;4971483;28;20500;-46
2022/06/09 05:29:14;;;;;;;3.70;2.20;;;15.70;83.90;;;;;;4989131;28;20485;-46
2022/06/09 05:31:41;;;;;;;5.50;2.00;;;15.70;83.70;;;;;;4989224;28;20500;-46
2022/06/09 05:34:09;;;;;;;3.03;2.23;;;15.80;83.00;;;;;;4989103;28;20536;-46
2022/06/09 05:36:37;;;;;;;3.37;2.30;;;15.80;83.50;;;;;;4987511;28;20457;-46
2022/06/09 05:44:54;;;;;;;6.70;2.53;;;15.80;83.40;;;;;;4989340;28;20468;-46
2022/06/09 05:47:23;;;;;;;7.20;2.20;;;15.90;83.90;;;;;;4991365;28;20460;-45
2022/06/09 05:49:52;;;;;;;6.07;2.50;;;15.90;83.40;;;;;;4987970;28;20473;-46
2022/06/09 05:52:23;;;;;;;5.70;2.40;;;16.00;83.40;;;;;;4988787;28;20465;-46
2022/06/09 05:54:51;;;;;;;7.93;1.87;;;16.00;83.40;;;;;;4989683;28;20472;-44
2022/06/09 05:57:20;;;;;;;5.67;2.17;;;16.00;83.40;;;;;;4988703;28;20884;-43
2022/06/09 05:59:48;;;;;;;2.47;1.90;;;16.10;82.30;;;;;;4986048;28;21040;-43
2022/06/09 06:02:17;;;;;;;6.23;2.70;;;16.10;82.30;;;;;;4988536;28;21168;-43
2022/06/09 06:04:44;;;;;;;7.20;2.00;;;16.20;81.50;;;;;;4985760;28;20500;-43
2022/06/09 06:07:11;;;;;;;4.73;2.07;;;16.20;80.70;;;;;;4986423;28;20476;-43
2022/06/09 06:09:38;;;;;;;10.03;2.73;;;16.20;80.90;;;;;;4989672;28;20875;-43
2022/06/09 06:12:06;;;;;;;4.07;2.30;;;16.20;81.40;;;;;;4972923;28;20493;-43
2022/06/09 06:14:34;;;;;;;2.93;2.43;;;16.30;81.30;;;;;;4986863;28;20544;-43
2022/06/09 06:17:01;;;;;;;4.43;2.83;;;16.30;81.60;;;;;;4984983;28;20515;-44
2022/06/09 06:19:28;;;;;;;5.00;2.27;;;16.40;81.20;;;;;;4988975;28;20454;-44
2022/06/09 06:21:55;;;;;;;2.57;1.43;;;16.40;81.00;;;;;;4985946;28;20980;-44
2022/06/09 06:24:24;;;;;;;5.70;2.60;;;16.40;81.60;;;;;;4987247;28;20611;-44
2022/06/09 06:26:50;;;;;;;4.47;1.97;;;16.50;81.40;;;;;;4987853;28;21163;-44
2022/06/09 06:29:22;;;;;;;8.53;2.77;;;16.50;80.30;;;;;;4988093;28;20543;-44
2022/06/09 06:31:50;;;;;;;8.80;3.10;;;16.50;80.90;;;;;;4986061;28;20551;-44
2022/06/09 06:34:16;;;;;;;2.73;2.50;;;16.50;81.30;;;;;;4987714;28;20469;-44
2022/06/09 06:36:44;;;;;;;4.43;2.40;;;16.50;80.80;;;;;;4974592;28;20965;-45
2022/06/09 06:39:10;;;;;;;5.00;2.33;;;16.50;80.20;;;;;;4974062;28;20480;-46
2022/06/09 06:41:38;;;;;;;5.60;2.10;;;16.50;80.20;;;;;;4972321;28;20459;-46
2022/06/09 06:44:06;;;;;;;5.07;2.23;;;16.50;79.90;;;;;;4987490;28;20926;-46
2022/06/09 06:46:33;;;;;;;3.03;2.20;;;16.60;79.90;;;;;;4971097;28;20984;-43
2022/06/09 06:49:00;;;;;;;8.40;2.97;;;16.70;79.70;;;;;;4987261;28;20520;-43
2022/06/09 06:51:27;;;;;;;5.37;2.40;;;16.70;80.10;;;;;;4983836;28;20533;-43
2022/06/09 06:53:54;;;;;;;10.03;2.73;;;16.80;79.80;;;;;;4989739;28;20453;-43
2022/06/09 06:56:24;;;;;;;7.20;2.43;;;16.80;80.00;;;;;;4986268;28;20999;-46
2022/06/09 06:58:52;;;;;;;5.40;2.67;;;16.80;80.60;;;;;;4984416;28;20453;-46
2022/06/09 07:01:19;;;;;;;6.30;3.43;;;16.80;79.40;;;;;;4985948;28;20493;-44
2022/06/09 07:03:46;;;;;;;3.10;2.27;;;16.80;79.20;;;;;;4985287;28;20480;-44
2022/06/09 07:06:13;;;;;;;4.70;2.40;;;16.80;79.10;;;;;;4966513;28;20457;-44
2022/06/09 07:08:40;;;;;;;2.50;2.17;;;16.90;80.10;;;;;;4973157;28;20966;-43
2022/06/09 07:11:09;;;;;;;6.40;2.60;;;16.90;78.90;;;;;;4987627;28;21016;-43
2022/06/09 07:13:39;;;;;;;3.63;2.17;;;16.90;78.60;;;;;;4965989;28;20471;-43
2022/06/09 07:16:06;;;;;;;7.10;2.37;;;17.00;78.80;;;;;;4983971;28;20453;-43
2022/06/09 07:18:49;;;;;;;4.73;2.90;;;17.00;79.00;;;;;;4982525;28;20466;-43
2022/06/09 07:21:17;;;;;;;4.13;2.30;;;17.10;78.90;;;;;;4987767;28;20968;-43
2022/06/09 07:23:45;;;;;;;4.23;2.07;;;17.10;78.80;;;;;;4988879;28;20455;-44
2022/06/09 07:26:12;;;;;;;7.20;3.10;;;17.10;78.00;;;;;;4987895;28;20493;-43
2022/06/09 07:28:39;;;;;;;5.23;2.50;;;17.10;77.30;;;;;;4988821;28;20832;-43
2022/06/09 07:31:06;;;;;;;5.90;3.10;;;17.10;77.00;;;;;;4988302;28;20491;-43
2022/06/09 07:33:36;;;;;;;4.57;1.50;;;17.00;77.90;;;;;;4991073;28;20699;-43
2022/06/09 07:36:06;;;;;;;4.53;2.67;;;17.00;78.00;;;;;;4986077;28;20457;-43
2022/06/09 07:38:33;;;;;;;4.70;2.37;;;17.00;78.10;;;;;;4987104;28;21050;-43
2022/06/09 07:41:00;;;;;;;4.13;2.63;;;17.00;78.10;;;;;;4970038;28;20468;-43
2022/06/09 07:43:48;;;;;;;6.73;2.27;;;17.00;78.70;;;;;;4987332;28;20895;-43
2022/06/09 07:46:16;;;;;;;6.80;3.00;;;17.10;79.10;;;;;;4988186;28;20449;-43
2022/06/09 07:48:45;;;;;;;5.40;2.90;;;17.10;78.50;;;;;;4973624;28;20453;-44
2022/06/09 07:51:16;;;;;;;6.20;2.77;;;17.10;78.00;;;;;;4987167;28;20499;-44
2022/06/09 07:53:43;;;;;;;5.20;2.60;;;17.10;78.00;;;;;;4969206;28;20535;-44
2022/06/09 07:56:10;;;;;;;5.77;3.23;;;17.20;78.00;;;;;;4971868;28;20536;-44
2022/06/09 07:58:38;;;;;;;4.27;3.03;;;17.20;78.00;;;;;;4986883;28;20464;-44
2022/06/09 08:01:04;;;;;;;4.90;2.67;;;17.20;78.40;;;;;;4987501;28;20496;-44
2022/06/09 08:03:32;;;;;;;5.70;3.20;;;17.20;77.90;;;;;;4953406;28;20560;-44
2022/06/09 08:05:58;;;;;;;6.93;2.53;;;17.20;78.50;;;;;;4971374;28;20464;-44
2022/06/09 08:08:45;;;;;;;3.63;2.50;;;17.20;78.50;;;;;;4987309;28;20448;-44
2022/06/09 08:11:12;;;;;;;7.03;2.40;;;17.10;78.50;;;;;;4970648;28;20485;-44
2022/06/09 08:13:39;;;;;;;4.40;2.53;;;17.10;78.00;;;;;;4991074;28;20571;-44
2022/06/09 08:16:07;;;;;;;10.70;5.43;;;17.10;77.50;;;;;;4990865;28;20466;-44
2022/06/09 08:18:34;;;;;;;5.50;2.47;;;17.00;78.40;;;;;;4975609;28;20552;-44
2022/06/09 08:21:01;;;;;;;4.07;2.67;;;17.00;78.20;;;;;;4990129;28;20560;-43
2022/06/09 08:23:46;;;;;;;4.77;3.30;;;17.00;78.60;;;;;;4970704;28;20492;-43
2022/06/09 08:26:13;;;;;;;5.23;2.37;;;17.00;79.10;;;;;;4989370;28;20465;-43
2022/06/09 08:28:40;;;;;;;4.77;2.47;;;17.00;77.90;;;;;;4976212;28;20862;-43
2022/06/09 08:31:07;;;;;;;4.70;2.20;;;17.10;77.90;;;;;;4991556;28;20572;-43
2022/06/09 08:33:35;;;;;;;6.50;3.10;;;17.10;76.80;;;;;;4989589;28;20462;-43
2022/06/09 08:36:03;;;;;;;3.83;2.00;;;17.10;77.50;;;;;;4990053;28;20521;-43
2022/06/09 08:38:30;;;;;;;4.70;2.50;;;17.10;76.90;;;;;;4969827;28;20478;-44
2022/06/09 08:41:13;;;;;;;2.87;2.00;;;17.10;78.30;;;;;;4989114;28;20469;-43
2022/06/09 08:43:58;;;;;;;2.93;2.20;;;17.20;77.70;;;;;;4988082;28;20465;-43
2022/06/09 08:46:30;;;;;;;4.33;1.57;;;17.20;76.70;;;;;;4985489;28;20448;-43
2022/06/09 08:49:00;;;;;;;4.30;2.00;;;17.20;74.90;;;;;;4982934;28;20476;-43
2022/06/09 08:51:42;;;;;;;4.97;1.90;;;17.20;75.40;;;;;;4986457;28;20496;-43
2022/06/09 08:54:15;;;;;;;4.60;1.90;;;17.30;75.10;;;;;;4988029;28;20560;-43
2022/06/09 08:56:42;;;;;;;4.13;1.53;;;17.30;76.10;;;;;;4986446;28;20472;-43
2022/06/09 08:59:15;;;;;;;3.63;1.77;;;17.30;75.90;;;;;;4967440;28;20853;-44
2022/06/09 09:01:56;;;;;;;4.27;1.83;;;17.30;74.60;;;;;;4969867;28;20472;-43
2022/06/09 09:04:25;;;;;;;3.60;1.70;;;17.30;74.10;;;;;;4968511;28;20543;-43
2022/06/09 09:07:16;;;;;;;3.07;1.87;;;17.20;75.20;;;;;;4988289;28;20461;-43
2022/06/09 09:09:45;;;;;;;4.73;2.20;;;17.20;75.70;;;;;;4981633;28;20944;-43
2022/06/09 09:12:34;;;;;;;6.60;2.00;;;17.20;75.10;;;;;;4985774;28;20714;-43
2022/06/09 09:15:09;;;;;;;3.30;2.20;;;17.20;75.60;;;;;;4987532;28;20470;-43
2022/06/09 09:18:03;;;;;;;2.00;1.50;;;17.20;76.40;;;;;;4984909;28;20475;-43
2022/06/09 09:21:12;;;;;;;3.73;1.80;;;17.30;76.80;;;;;;4973240;28;20532;-43
2022/06/09 09:23:59;;;;;;;6.00;2.20;;;17.40;77.80;;;;;;4988634;28;20827;-43
2022/06/09 09:26:48;;;;;;;8.70;2.20;;;17.40;78.00;;;;;;4987946;28;20560;-43
2022/06/09 09:29:31;;;;;;;6.60;2.37;;;17.50;78.40;;;;;;4970074;28;20468;-43
2022/06/09 09:32:05;;;;;;;3.17;2.30;;;17.50;78.00;;;;;;4987522;28;20492;-43
2022/06/09 09:34:37;;;;;;;4.70;2.40;;;17.50;78.30;;;;;;4972808;28;20548;-43
2022/06/09 09:37:32;;;;;;;2.77;2.30;;;17.60;78.70;;;;;;4988664;28;20540;-43
2022/06/09 09:40:42;;;;;;;5.17;2.70;;;17.60;78.90;;;;;;4987121;28;20466;-48
2022/06/09 09:43:15;;;;;;;5.90;2.63;;;17.50;79.40;;;;;;4981144;28;20466;-43
2022/06/09 09:45:53;;;;;;;3.40;2.80;;;17.50;79.70;;;;;;4990383;28;20461;-43
2022/06/09 09:48:20;;;;;;;5.37;2.17;;;17.40;79.80;;;;;;4990411;28;20507;-43
2022/06/09 09:50:46;;;;;;;2.60;2.40;;;17.40;80.30;;;;;;4984866;28;20858;-43
2022/06/09 09:53:19;;;;;;;6.13;2.30;;;17.30;80.70;;;;;;4988247;28;20468;-43
2022/06/09 09:56:00;;;;;;;5.40;2.70;;;17.30;81.60;;;;;;4988023;28;20476;-43
2022/06/09 09:58:36;;;;;;;4.17;2.67;;;17.30;81.90;;;;;;4986579;28;20838;-43
2022/06/09 10:01:06;;;;;;;4.70;2.73;;;17.30;81.20;;;;;;4985849;28;20507;-43
2022/06/09 10:10:15;;;;;;;4.53;2.50;;;17.20;82.10;;;;;;4987283;28;20556;-43
2022/06/09 10:12:43;;;;;;;7.23;2.70;;;17.20;81.70;;;;;;4985343;28;20496;-43
2022/06/09 10:15:28;;;;;;;3.90;2.30;;;17.20;82.20;;;;;;4986325;28;20548;-43
2022/06/09 10:18:18;;;;;;;5.70;2.63;;;17.20;82.50;;;;;;4966973;28;20469;-43
2022/06/09 10:21:10;;;;;;;4.33;2.90;;;17.20;82.80;;;;;;4978799;28;20448;-43
2022/06/09 10:23:54;;;;;;;5.10;3.30;;;17.30;82.80;;;;;;4979175;28;20488;-43
2022/06/09 10:26:34;;;;;;;4.30;3.20;;;17.40;83.30;;;;;;4982614;28;20568;-43
2022/06/09 10:29:37;;;;;;;4.63;2.40;;;17.50;83.00;;;;;;4986646;28;20623;-43
2022/06/09 10:32:08;;;;;;;9.97;2.57;;;17.50;82.40;;;;;;4982781;28;20492;-43
2022/06/09 10:34:48;;;;;;;3.07;2.60;;;17.60;81.80;;;;;;4971004;28;20465;-43
2022/06/09 10:37:56;;;;;;;5.30;2.70;;;17.70;79.90;;;;;;4986433;28;20528;-43
2022/06/09 10:40:28;;;;;;;7.13;3.00;;;17.80;79.30;;;;;;4986558;28;20453;-43
2022/06/09 10:43:22;;;;;;;5.90;2.40;;;17.90;77.90;;;;;;4984806;28;20556;-43
2022/06/09 10:45:58;;;;;;;3.50;2.13;;;18.00;77.50;;;;;;4967435;28;21044;-43
2022/06/09 10:57:26;;;;;;;6.73;2.97;;;18.30;74.70;;;;;;4985644;28;20457;-43
2022/06/09 11:00:22;;;;;;;4.57;2.73;;;18.30;75.40;;;;;;4967337;28;20559;-43
2022/06/09 11:02:54;;;;;;;5.73;2.77;;;18.30;75.90;;;;;;4982647;28;20933;-43
2022/06/09 11:05:46;;;;;;;2.97;2.10;;;18.40;74.10;;;;;;4966045;28;20554;-43
2022/06/09 11:08:37;;;;;;;4.10;1.70;;;18.40;74.30;;;;;;4965917;28;20458;-43
2022/06/09 11:11:30;;;;;;;3.40;1.90;;;18.40;74.30;;;;;;4985128;28;20497;-44
2022/06/09 11:14:13;;;;;;;4.47;2.30;;;18.50;73.00;;;;;;4987175;28;20461;-43
2022/06/09 11:16:54;;;;;;;5.10;1.93;;;18.60;73.10;;;;;;4985443;28;20457;-43
2022/06/09 11:19:38;;;;;;;5.10;2.40;;;18.70;71.80;;;;;;4981657;28;20466;-43
2022/06/09 11:22:24;;;;;;;2.67;2.23;;;18.80;72.00;;;;;;4985272;28;20469;-43
2022/06/09 11:25:29;;;;;;;8.80;2.40;;;18.90;70.20;;;;;;4968179;28;20970;-43
2022/06/09 11:28:15;;;;;;;3.27;1.90;;;19.00;70.80;;;;;;4982803;28;20461;-43
2022/06/09 11:31:01;;;;;;;4.23;2.07;;;19.00;69.30;;;;;;4983932;28;20481;-44
2022/06/09 11:33:46;;;;;;;2.77;2.27;;;19.10;69.90;;;;;;4986372;28;20469;-43
2022/06/09 11:36:32;;;;;;;3.30;2.70;;;19.20;69.90;;;;;;4983964;28;20904;-44
2022/06/09 11:39:30;;;;;;;4.40;1.63;;;19.20;70.10;;;;;;4965347;28;20548;-43
2022/06/09 11:42:23;;;;;;;6.37;2.37;;;19.20;69.90;;;;;;4986003;28;20483;-43
2022/06/09 11:44:53;;;;;;;3.27;1.90;;;19.20;70.10;;;;;;4986789;28;20468;-43
2022/06/09 11:47:27;;;;;;;2.50;2.17;;;19.20;69.50;;;;;;4987476;28;20982;-43
2022/06/09 11:49:59;;;;;;;5.70;2.43;;;19.30;70.50;;;;;;4990715;28;20465;-43
2022/06/09 11:52:30;;;;;;;3.00;1.93;;;19.20;69.30;;;;;;4983257;28;20491;-43
2022/06/09 11:55:24;;;;;;;5.00;2.77;;;19.20;68.40;;;;;;4987304;28;20592;-43
2022/06/09 11:57:51;;;;;;;6.03;2.37;;;19.20;69.10;;;;;;4969232;28;20487;-43
2022/06/09 12:00:18;;;;;;;3.33;2.17;;;19.10;69.80;;;;;;4987163;28;21057;-43
2022/06/09 12:02:57;;;;;;;3.70;2.83;;;19.20;68.50;;;;;;4986246;28;20473;-43
2022/06/09 12:05:33;;;;;;;4.20;2.03;;;19.20;69.50;;;;;;4986627;28;20550;-43
2022/06/09 12:08:31;;;;;;;4.43;2.50;;;19.20;68.60;;;;;;4989373;28;20465;-43
2022/06/09 12:11:19;;;;;;;3.97;2.77;;;19.20;69.40;;;;;;4966634;28;20467;-43
2022/06/09 12:14:03;;;;;;;5.03;2.97;;;19.20;68.20;;;;;;4985572;28;20449;-43
2022/06/09 12:16:39;;;;;;;7.27;2.20;;;19.30;69.20;;;;;;4989488;28;20464;-43
2022/06/09 12:19:57;;;;;;;4.60;2.70;;;19.40;70.40;;;;;;4987540;28;20524;-43
2022/06/09 12:22:48;;;;;;;3.70;2.97;;;19.60;68.20;;;;;;4967106;28;21069;-43
2022/06/09 12:25:17;;;;;;;3.07;1.90;;;19.80;69.40;;;;;;4972638;28;20547;-45
2022/06/09 12:27:50;;;;;;;2.97;1.50;;;19.90;66.70;;;;;;4987070;28;20575;-45
2022/06/09 12:30:29;;;;;;;1.27;1.00;;;19.90;63.50;;;;;;4988242;28;21013;-45
2022/06/09 12:33:11;;;;;;;1.50;0.90;;;19.90;61.30;;;;;;4983715;28;20496;-45
2022/06/09 12:35:56;;;;;;;4.23;1.33;;;19.90;61.40;;;;;;4989285;28;20468;-43
2022/06/09 12:38:50;;;;;;;2.20;1.00;;;19.90;62.10;;;;;;4969821;28;20464;-43
2022/06/09 12:41:40;;;;;;;3.50;1.60;;;19.80;62.20;;;;;;4987030;28;20962;-43
2022/06/09 12:44:22;;;;;;;1.70;1.17;;;19.90;62.90;;;;;;4987328;28;21038;-45
2022/06/09 12:47:12;;;;;;;1.60;1.20;;;19.90;62.40;;;;;;4972218;28;21056;-45
2022/06/09 12:49:42;;;;;;;1.50;1.13;;;20.00;61.80;;;;;;4968991;28;20465;-43
2022/06/09 12:52:26;;;;;;;2.10;0.90;;;20.20;59.20;;;;;;4970796;28;20560;-43
2022/06/09 12:55:02;;;;;;;3.50;1.20;;;20.30;57.70;;;;;;4986755;28;20520;-43
2022/06/09 12:57:35;;;;;;;2.17;1.10;;;20.40;56.20;;;;;;4985238;28;20453;-45
2022/06/09 13:00:28;;;;;;;1.80;1.67;;;20.50;56.60;;;;;;4989032;28;20560;-47
2022/06/09 13:02:55;;;;;;;3.13;1.83;;;20.50;57.70;;;;;;4981804;28;20469;-47
2022/06/09 13:05:27;;;;;;;2.53;1.43;;;20.60;57.90;;;;;;4989944;28;20470;-47
2022/06/09 13:07:56;;;;;;;2.00;1.80;;;20.70;56.80;;;;;;4970986;28;20465;-47
2022/06/09 13:10:30;;;;;;;5.70;1.60;;;20.70;58.30;;;;;;4986295;28;20489;-47
2022/06/09 13:13:13;;;;;;;2.77;1.30;;;20.80;58.20;;;;;;4988111;28;20493;-47
2022/06/09 13:15:52;;;;;;;2.13;1.20;;;20.70;57.40;;;;;;4982317;28;20487;-47
2022/06/09 13:18:35;;;;;;;2.20;1.50;;;20.60;57.80;;;;;;4967660;28;20732;-47
2022/06/09 13:21:07;;;;;;;2.30;2.10;;;20.50;58.20;;;;;;4987913;28;20460;-46
2022/06/09 13:23:35;;;;;;;2.73;1.90;;;20.30;59.10;;;;;;4986640;28;20461;-45
2022/06/09 13:26:05;;;;;;;6.13;1.70;;;20.20;60.70;;;;;;4954941;28;20488;-44
2022/06/09 13:28:35;;;;;;;6.40;2.40;;;20.10;61.80;;;;;;4990090;28;20563;-43
2022/06/09 13:31:07;;;;;;;3.70;2.00;;;20.10;62.00;;;;;;4984921;28;20469;-43
2022/06/09 13:33:43;;;;;;;2.03;1.90;;;20.10;62.20;;;;;;4987551;28;20512;-42
2022/06/09 13:36:30;;;;;;;2.10;1.90;;;20.10;62.80;;;;;;4988219;28;20508;-42
2022/06/09 13:39:18;;;;;;;2.70;2.07;;;20.00;63.60;;;;;;4957164;28;20450;-42
2022/06/09 13:41:46;;;;;;;4.20;2.00;;;20.00;63.30;;;;;;4988659;28;20528;-42